createdAt,value
2023-05-03T00:00:10.304Z,36.20
2023-05-03T00:02:40.241Z,36.50
2023-05-03T00:05:13.024Z,36.40
2023-05-03T00:07:43.958Z,36.40
2023-05-03T00:10:16.329Z,36.20
2023-05-03T00:12:43.950Z,36.20
2023-05-03T00:15:11.274Z,36.20
2023-05-03T00:17:38.613Z,36.30
2023-05-03T00:20:06.245Z,36.40
2023-05-03T00:22:33.199Z,36.40
2023-05-03T00:25:00.452Z,36.50
2023-05-03T00:27:27.197Z,36.50
2023-05-03T00:29:53.874Z,36.50
2023-05-03T00:32:23.457Z,36.90
2023-05-03T00:34:54.948Z,36.90
2023-05-03T00:37:22.172Z,36.90
2023-05-03T00:39:49.077Z,37.20
2023-05-03T00:42:16.013Z,37.10
2023-05-03T00:44:42.786Z,37.40
2023-05-03T00:47:09.895Z,37.40
2023-05-03T00:49:37.315Z,37.30
2023-05-03T00:52:04.094Z,37.40
2023-05-03T00:54:31.139Z,37.70
2023-05-03T00:56:58.079Z,37.60
2023-05-03T00:59:25.177Z,37.90
2023-05-03T01:01:53.229Z,38.30
2023-05-03T01:04:21.704Z,37.40
2023-05-03T01:06:54.781Z,37.50
2023-05-03T01:09:37.577Z,37.60
2023-05-03T01:12:12.698Z,37.30
2023-05-03T01:15:05.180Z,37.30
2023-05-03T01:17:38.942Z,37.50
2023-05-03T01:20:11.402Z,37.50
2023-05-03T01:22:56.320Z,37.70
2023-05-03T01:25:23.092Z,38.10
2023-05-03T01:27:49.977Z,38.30
2023-05-03T01:30:16.891Z,38.40
2023-05-03T01:32:57.551Z,38.30
2023-05-03T01:35:50.596Z,38.60
2023-05-03T01:38:18.170Z,39.20
2023-05-03T01:40:52.532Z,38.50
2023-05-03T01:43:21.030Z,38.60
2023-05-03T01:45:48.403Z,39.10
2023-05-03T01:48:16.640Z,38.30
2023-05-03T01:50:43.403Z,38.40
2023-05-03T01:53:10.190Z,38.40
2023-05-03T01:55:36.897Z,38.40
2023-05-03T01:58:03.669Z,39.00
2023-05-03T02:00:30.587Z,39.10
2023-05-03T02:02:58.229Z,39.40
2023-05-03T02:05:26.082Z,39.10
2023-05-03T02:07:52.892Z,39.40
2023-05-03T02:10:19.666Z,40.00
2023-05-03T02:12:46.596Z,39.10
2023-05-03T02:15:13.970Z,39.10
2023-05-03T02:17:42.778Z,38.80
2023-05-03T02:20:09.880Z,39.60
2023-05-03T02:22:37.048Z,39.00
2023-05-03T02:25:04.840Z,39.90
2023-05-03T02:27:31.638Z,39.90
2023-05-03T02:29:58.369Z,39.80
2023-05-03T02:32:25.617Z,39.60
2023-05-03T02:34:52.416Z,39.70
2023-05-03T02:37:19.208Z,39.70
2023-05-03T02:39:45.988Z,40.10
2023-05-03T02:42:12.792Z,40.20
2023-05-03T02:44:39.649Z,40.40
2023-05-03T02:47:06.305Z,40.30
2023-05-03T02:49:33.065Z,40.30
2023-05-03T02:51:59.707Z,41.00
2023-05-03T02:54:26.412Z,40.40
2023-05-03T02:56:53.125Z,40.40
2023-05-03T02:59:19.831Z,40.00
2023-05-03T03:01:47.212Z,40.10
2023-05-03T03:04:14.183Z,40.10
2023-05-03T03:06:40.986Z,40.20
2023-05-03T03:09:07.846Z,40.60
2023-05-03T03:11:34.792Z,40.30
2023-05-03T03:14:01.524Z,40.60
2023-05-03T03:16:28.313Z,40.20
2023-05-03T03:18:55.119Z,40.50
2023-05-03T03:21:21.955Z,40.40
2023-05-03T03:23:48.687Z,40.50
2023-05-03T03:26:15.445Z,40.80
2023-05-03T03:28:42.116Z,40.70
2023-05-03T03:31:09.093Z,41.60
2023-05-03T03:33:35.870Z,41.80
2023-05-03T03:36:02.597Z,41.00
2023-05-03T03:38:29.278Z,40.90
2023-05-03T03:40:56.026Z,41.00
2023-05-03T03:43:22.752Z,41.00
2023-05-03T03:45:49.486Z,41.00
2023-05-03T03:48:16.244Z,41.00
2023-05-03T03:50:43.127Z,41.00
2023-05-03T03:53:11.207Z,41.00
2023-05-03T03:55:38.648Z,41.10
2023-05-03T03:58:05.925Z,41.00
2023-05-03T04:00:34.418Z,40.80
2023-05-03T04:03:01.351Z,41.10
2023-05-03T04:05:28.238Z,41.00
2023-05-03T04:07:54.950Z,41.20
2023-05-03T04:10:21.716Z,41.30
2023-05-03T04:12:48.438Z,41.30
2023-05-03T04:15:15.206Z,41.40
2023-05-03T04:17:42.019Z,41.50
2023-05-03T04:20:11.278Z,41.50
2023-05-03T04:22:39.491Z,41.60
2023-05-03T04:25:08.726Z,41.90
2023-05-03T04:27:35.526Z,41.90
2023-05-03T04:30:02.766Z,41.50
2023-05-03T04:32:29.677Z,41.40
2023-05-03T04:34:56.380Z,41.40
2023-05-03T04:37:23.457Z,41.60
2023-05-03T04:39:50.108Z,41.70
2023-05-03T04:42:16.793Z,41.80
2023-05-03T04:44:43.509Z,41.80
2023-05-03T04:47:10.535Z,41.90
2023-05-03T04:49:37.383Z,41.60
2023-05-03T04:52:04.369Z,41.60
2023-05-03T04:54:31.384Z,41.60
2023-05-03T04:56:58.129Z,41.40
2023-05-03T04:59:24.773Z,41.80
2023-05-03T05:01:51.510Z,42.00
2023-05-03T05:04:18.288Z,42.00
2023-05-03T05:06:45.123Z,41.90
2023-05-03T05:09:28.417Z,42.00
2023-05-03T05:11:57.294Z,42.10
2023-05-03T05:14:24.292Z,42.30
2023-05-03T05:16:51.147Z,42.60
2023-05-03T05:19:17.945Z,42.50
2023-05-03T05:21:44.696Z,42.50
2023-05-03T05:24:11.353Z,43.00
2023-05-03T05:26:44.650Z,42.90
2023-05-03T05:29:11.420Z,43.10
2023-05-03T05:31:38.278Z,43.00
2023-05-03T05:34:05.091Z,43.00
2023-05-03T05:36:31.957Z,43.90
2023-05-03T05:38:58.744Z,43.10
2023-05-03T05:41:25.647Z,43.30
2023-05-03T05:43:53.237Z,43.20
2023-05-03T05:46:21.348Z,43.50
2023-05-03T05:48:48.353Z,43.70
2023-05-03T05:51:15.133Z,43.40
2023-05-03T05:53:42.043Z,43.50
2023-05-03T05:56:08.951Z,43.20
2023-05-03T05:58:37.446Z,43.10
2023-05-03T06:01:05.582Z,43.00
2023-05-03T06:03:33.862Z,42.90
2023-05-03T06:06:01.080Z,42.00
2023-05-03T06:08:28.069Z,41.90
2023-05-03T06:10:54.899Z,41.60
2023-05-03T06:13:22.476Z,41.60
2023-05-03T06:15:49.135Z,41.30
2023-05-03T06:18:15.961Z,41.40
2023-05-03T06:20:43.080Z,41.50
2023-05-03T06:23:09.920Z,40.80
2023-05-03T06:25:36.580Z,40.90
2023-05-03T06:28:03.528Z,41.20
2023-05-03T06:30:31.098Z,41.10
2023-05-03T06:32:57.873Z,41.00
2023-05-03T06:35:24.660Z,41.00
2023-05-03T06:37:52.196Z,41.10
2023-05-03T06:40:19.064Z,41.00
2023-05-03T06:42:46.297Z,40.60
2023-05-03T06:45:13.117Z,40.70
2023-05-03T06:47:42.616Z,40.40
2023-05-03T06:50:10.027Z,40.50
2023-05-03T06:52:36.720Z,40.40
2023-05-03T06:55:05.083Z,40.30
2023-05-03T06:57:32.226Z,40.40
2023-05-03T06:59:59.353Z,40.40
2023-05-03T07:02:26.973Z,40.40
2023-05-03T07:04:54.027Z,40.50
2023-05-03T07:07:21.109Z,40.50
2023-05-03T07:09:48.113Z,40.10
2023-05-03T07:12:16.404Z,40.20
2023-05-03T07:14:43.324Z,40.30
2023-05-03T07:17:10.292Z,40.00
2023-05-03T07:19:37.523Z,39.90
2023-05-03T07:22:04.779Z,39.80
2023-05-03T07:24:31.501Z,40.00
2023-05-03T07:26:58.499Z,40.20
2023-05-03T07:29:26.430Z,40.20
2023-05-03T07:31:53.793Z,40.30
2023-05-03T07:34:21.177Z,40.60
2023-05-03T07:36:47.976Z,39.70
2023-05-03T07:39:14.786Z,39.30
2023-05-03T07:41:41.460Z,39.30
2023-05-03T07:44:08.270Z,39.60
2023-05-03T07:46:35.541Z,39.10
2023-05-03T07:49:05.721Z,38.70
2023-05-03T07:51:39.526Z,38.30
2023-05-03T07:54:06.767Z,38.40
2023-05-03T07:56:33.684Z,38.10
2023-05-03T08:01:30.496Z,37.60
2023-05-03T08:03:58.767Z,37.70
2023-05-03T08:06:26.034Z,37.70
2023-05-03T08:08:52.821Z,37.50
2023-05-03T08:11:19.538Z,36.70
2023-05-03T08:13:58.692Z,36.30
2023-05-03T08:16:26.093Z,36.40
2023-05-03T08:18:53.034Z,36.20
